createdAt,value
2017-07-03T00:01:27.679Z,72.60
2017-07-03T00:03:53.955Z,72.70
2017-07-03T00:06:20.213Z,73.20
2017-07-03T00:08:46.452Z,73.20
2017-07-03T00:11:12.679Z,74.00
2017-07-03T00:13:38.895Z,73.70
2017-07-03T00:17:35.464Z,73.90
2017-07-03T00:20:01.692Z,73.60
2017-07-03T00:22:27.954Z,74.50
2017-07-03T00:24:54.203Z,74.10
2017-07-03T00:27:20.421Z,76.20
2017-07-03T00:29:46.670Z,75.60
2017-07-03T00:32:12.915Z,75.00
2017-07-03T00:34:39.139Z,75.10
2017-07-03T00:37:05.394Z,74.70
2017-07-03T00:39:31.663Z,75.30
2017-07-03T00:41:57.881Z,75.80
2017-07-03T00:44:24.104Z,75.70
2017-07-03T00:46:50.333Z,75.80
2017-07-03T00:49:16.567Z,75.60
2017-07-03T00:51:42.839Z,76.10
2017-07-03T00:54:09.049Z,75.70
2017-07-03T00:56:35.298Z,75.10
2017-07-03T00:59:01.591Z,75.80
2017-07-03T01:01:27.842Z,76.70
2017-07-03T01:03:54.070Z,76.60
2017-07-03T01:06:20.308Z,77.70
2017-07-03T01:08:46.558Z,77.00
2017-07-03T01:11:12.782Z,77.90
2017-07-03T01:13:39.015Z,77.40
2017-07-03T01:17:35.114Z,78.20
2017-07-03T01:20:01.395Z,79.10
2017-07-03T01:22:27.613Z,78.70
2017-07-03T01:24:53.859Z,77.70
2017-07-03T01:27:20.086Z,78.20
2017-07-03T01:29:46.359Z,78.70
2017-07-03T01:32:12.611Z,78.30
2017-07-03T01:34:38.870Z,78.60
2017-07-03T01:37:05.112Z,78.50
2017-07-03T01:39:31.410Z,78.40
2017-07-03T01:41:57.648Z,77.20
2017-07-03T01:44:23.909Z,77.00
2017-07-03T01:46:50.195Z,77.60
2017-07-03T01:49:16.474Z,78.10
2017-07-03T01:51:42.766Z,78.60
2017-07-03T01:54:09.012Z,78.00
2017-07-03T01:56:35.242Z,78.20
2017-07-03T01:59:01.496Z,77.80
2017-07-03T02:01:27.758Z,77.30
2017-07-03T02:03:53.992Z,78.90
2017-07-03T02:06:20.218Z,78.40
2017-07-03T02:08:46.438Z,78.40
2017-07-03T02:11:12.744Z,79.00
2017-07-03T02:13:38.959Z,78.50
2017-07-03T02:17:35.727Z,78.80
2017-07-03T02:20:01.967Z,78.60
2017-07-03T02:22:28.228Z,78.50
2017-07-03T02:24:54.461Z,78.80
2017-07-03T02:27:20.687Z,79.70
2017-07-03T02:29:46.908Z,79.10
2017-07-03T02:32:13.142Z,79.70
2017-07-03T02:34:39.377Z,80.30
2017-07-03T02:37:05.603Z,80.50
2017-07-03T02:39:31.904Z,81.10
2017-07-03T02:41:58.126Z,80.90
2017-07-03T02:44:24.355Z,81.00
2017-07-03T02:46:50.574Z,80.40
2017-07-03T02:49:16.804Z,79.70
2017-07-03T02:51:43.032Z,79.70
2017-07-03T02:54:09.295Z,79.80
2017-07-03T02:56:35.510Z,80.10
2017-07-03T02:59:01.736Z,80.10
2017-07-03T03:01:27.975Z,80.50
2017-07-03T03:03:54.242Z,80.40
2017-07-03T03:06:20.466Z,81.10
2017-07-03T03:08:46.695Z,80.10
2017-07-03T03:11:12.923Z,80.50
2017-07-03T03:13:39.140Z,80.60
2017-07-03T03:17:35.407Z,80.30
2017-07-03T03:20:01.670Z,79.90
2017-07-03T03:22:27.893Z,81.10
2017-07-03T03:24:54.148Z,80.90
2017-07-03T03:27:20.372Z,82.00
2017-07-03T03:29:46.632Z,82.10
2017-07-03T03:32:12.888Z,82.20
2017-07-03T03:34:39.106Z,81.90
2017-07-03T03:37:05.360Z,81.70
2017-07-03T03:39:31.587Z,81.60
2017-07-03T03:41:57.842Z,81.30
2017-07-03T03:44:24.078Z,80.70
2017-07-03T03:46:50.300Z,81.20
2017-07-03T03:49:16.536Z,81.60
2017-07-03T03:51:42.803Z,81.80
2017-07-03T03:54:09.020Z,81.70
2017-07-03T03:56:35.263Z,81.90
2017-07-03T03:59:01.503Z,81.50
2017-07-03T04:01:27.755Z,81.10
2017-07-03T04:03:53.977Z,81.50
2017-07-03T04:06:20.250Z,81.50
2017-07-03T04:08:46.481Z,81.00
2017-07-03T04:11:12.731Z,80.90
2017-07-03T04:13:38.952Z,81.40
2017-07-03T04:17:36.980Z,81.20
2017-07-03T04:20:03.231Z,80.20
2017-07-03T04:22:29.464Z,81.30
2017-07-03T04:24:55.707Z,81.30
2017-07-03T04:27:21.961Z,81.40
2017-07-03T04:29:48.203Z,81.40
2017-07-03T04:32:14.447Z,81.50
2017-07-03T04:34:40.664Z,81.40
2017-07-03T04:37:06.902Z,81.30
2017-07-03T04:39:33.123Z,81.20
2017-07-03T04:41:59.374Z,81.20
2017-07-03T04:44:25.623Z,81.10
2017-07-03T04:46:51.886Z,81.10
2017-07-03T04:49:18.163Z,81.10
2017-07-03T04:51:44.398Z,80.80
2017-07-03T04:54:10.671Z,81.00
2017-07-03T04:56:36.894Z,80.20
2017-07-03T04:59:03.138Z,81.00
2017-07-03T05:01:29.394Z,81.00
2017-07-03T05:03:55.641Z,80.70
2017-07-03T05:06:21.915Z,81.00
2017-07-03T05:08:48.178Z,80.30
2017-07-03T05:11:14.422Z,80.90
2017-07-03T05:13:40.676Z,80.10
2017-07-03T05:17:35.855Z,80.00
2017-07-03T05:20:02.099Z,79.10
2017-07-03T05:22:28.321Z,80.30
2017-07-03T05:24:54.599Z,79.50
2017-07-03T05:27:20.843Z,79.60
2017-07-03T05:29:47.255Z,79.20
2017-07-03T05:32:22.859Z,79.00
2017-07-03T05:34:49.137Z,79.50
2017-07-03T05:37:24.098Z,77.80
2017-07-03T05:39:50.326Z,78.80
2017-07-03T05:42:16.578Z,78.80
2017-07-03T05:44:42.825Z,79.00
2017-07-03T05:47:09.067Z,78.40
2017-07-03T05:49:35.334Z,77.90
2017-07-03T05:52:01.900Z,76.90
2017-07-03T05:54:28.806Z,76.40
2017-07-03T05:56:55.035Z,77.20
2017-07-03T05:59:21.279Z,75.80
2017-07-03T06:01:47.591Z,75.30
2017-07-03T06:04:13.835Z,75.30
2017-07-03T06:06:40.087Z,74.60
2017-07-03T06:09:06.388Z,74.30
2017-07-03T06:11:32.636Z,74.40
2017-07-03T06:13:58.886Z,74.60
2017-07-03T06:17:35.420Z,73.90
2017-07-03T06:20:03.602Z,72.50
2017-07-03T06:22:29.840Z,72.60
2017-07-03T06:24:56.334Z,72.30
2017-07-03T06:27:22.601Z,72.30
2017-07-03T06:29:48.842Z,70.30
2017-07-03T06:32:15.129Z,71.90
2017-07-03T06:34:41.366Z,70.80
2017-07-03T06:37:07.618Z,69.50
2017-07-03T06:39:33.850Z,69.10
2017-07-03T06:42:00.071Z,69.20
2017-07-03T06:44:26.316Z,68.20
2017-07-03T06:46:52.544Z,69.30
2017-07-03T06:49:18.811Z,68.20
2017-07-03T06:51:45.046Z,67.90
2017-07-03T06:54:11.312Z,68.10
2017-07-03T06:56:37.552Z,66.50
2017-07-03T06:59:03.776Z,66.80
2017-07-03T07:01:30.057Z,64.80
2017-07-03T07:03:56.312Z,64.40
2017-07-03T07:06:22.551Z,63.00
2017-07-03T07:08:48.783Z,63.50
2017-07-03T07:11:15.007Z,61.90
2017-07-03T07:13:41.243Z,64.10
2017-07-03T07:17:35.974Z,63.60
2017-07-03T07:20:02.225Z,62.10
2017-07-03T07:22:28.458Z,61.50
2017-07-03T07:24:54.690Z,61.20
2017-07-03T07:27:20.939Z,59.20
2017-07-03T07:29:47.171Z,55.10
2017-07-03T07:32:13.443Z,53.70
2017-07-03T07:34:39.700Z,52.10
2017-07-03T07:37:05.963Z,51.10
2017-07-03T07:39:32.198Z,49.90
2017-07-03T07:41:58.431Z,48.50
2017-07-03T07:44:24.662Z,46.90
2017-07-03T07:46:50.926Z,45.00
2017-07-03T07:49:17.160Z,45.90
2017-07-03T07:51:43.449Z,47.20
2017-07-03T07:54:09.708Z,46.10
2017-07-03T07:56:35.975Z,45.60
2017-07-03T07:59:02.206Z,42.70
2017-07-03T08:01:28.475Z,41.80
2017-07-03T08:03:54.727Z,41.80
2017-07-03T08:06:21.055Z,42.90
2017-07-03T08:08:47.302Z,41.50
2017-07-03T08:11:13.566Z,40.70
2017-07-03T08:13:39.941Z,41.00
2017-07-03T08:17:35.913Z,41.10
2017-07-03T08:20:02.237Z,40.50
2017-07-03T08:22:28.542Z,42.30
2017-07-03T08:24:54.770Z,40.70
2017-07-03T08:27:21.067Z,42.80
2017-07-03T08:29:47.361Z,39.50
2017-07-03T08:32:13.594Z,41.70
2017-07-03T08:34:39.835Z,41.10
2017-07-03T08:37:06.069Z,40.70
2017-07-03T08:39:32.290Z,43.10
2017-07-03T08:41:58.586Z,41.70
2017-07-03T08:44:24.828Z,43.30
2017-07-03T08:46:51.076Z,42.60
2017-07-03T08:49:17.315Z,40.70
2017-07-03T08:51:43.559Z,40.50
2017-07-03T08:54:09.815Z,42.00
2017-07-03T08:56:36.068Z,42.00
2017-07-03T08:59:02.314Z,40.60
2017-07-03T09:01:28.547Z,41.00
2017-07-03T09:03:54.776Z,39.60
2017-07-03T09:06:21.065Z,40.20
2017-07-03T09:08:47.311Z,43.50
2017-07-03T09:11:13.581Z,39.30
2017-07-03T09:13:39.809Z,42.30
2017-07-03T09:17:35.747Z,40.10
2017-07-03T09:20:02.004Z,40.40
2017-07-03T09:22:28.270Z,39.40
2017-07-03T09:24:54.514Z,41.80
2017-07-03T09:27:20.764Z,38.40
2017-07-03T09:29:47.035Z,38.50
2017-07-03T09:32:13.263Z,37.30
2017-07-03T09:34:39.547Z,38.00
2017-07-03T09:37:05.816Z,37.50
2017-07-03T09:39:32.053Z,38.40
2017-07-03T09:41:58.333Z,36.50
2017-07-03T09:44:24.570Z,37.40
2017-07-03T09:46:50.831Z,37.70
2017-07-03T09:49:17.079Z,36.80
2017-07-03T09:51:43.352Z,38.30
2017-07-03T09:54:09.648Z,36.70
2017-07-03T09:56:35.896Z,37.60
2017-07-03T09:59:02.228Z,38.00
2017-07-03T10:01:28.526Z,39.00
2017-07-03T10:03:54.772Z,38.90
2017-07-03T10:06:21.036Z,38.30
2017-07-03T10:08:47.288Z,38.10
2017-07-03T10:11:13.610Z,38.40
2017-07-03T10:13:39.878Z,38.90
2017-07-03T10:17:35.984Z,39.50
2017-07-03T10:20:02.227Z,40.80
2017-07-03T10:22:28.471Z,40.80
2017-07-03T10:24:54.716Z,40.90
2017-07-03T10:27:20.945Z,40.60
2017-07-03T10:29:47.182Z,41.50
2017-07-03T10:32:13.440Z,41.30
2017-07-03T10:34:39.705Z,41.00
2017-07-03T10:37:05.991Z,41.20
2017-07-03T10:39:32.253Z,42.00
2017-07-03T10:41:58.512Z,42.30
2017-07-03T10:44:24.783Z,41.10
2017-07-03T10:46:51.084Z,42.20
2017-07-03T10:49:17.390Z,41.40
2017-07-03T10:51:43.634Z,42.00
2017-07-03T10:54:09.908Z,42.90
2017-07-03T10:56:36.157Z,44.30
2017-07-03T10:59:02.426Z,43.60
2017-07-03T11:01:28.663Z,43.90
2017-07-03T11:03:54.934Z,43.50
2017-07-03T11:06:21.179Z,45.70
2017-07-03T11:08:47.444Z,43.20
2017-07-03T11:11:13.701Z,42.20
2017-07-03T11:13:39.969Z,41.50
2017-07-03T11:17:35.682Z,40.90
2017-07-03T11:20:08.823Z,40.70
2017-07-03T11:22:35.074Z,39.60
2017-07-03T11:25:01.366Z,37.80
2017-07-03T11:27:27.599Z,38.20
2017-07-03T11:29:53.853Z,38.20
2017-07-03T11:32:20.104Z,37.60
2017-07-03T11:34:46.374Z,39.50
2017-07-03T11:37:12.632Z,39.30
2017-07-03T11:39:38.923Z,38.20
2017-07-03T11:44:37.035Z,39.70
2017-07-03T11:47:03.274Z,38.40
2017-07-03T11:49:29.511Z,38.20
2017-07-03T11:51:55.778Z,37.30
2017-07-03T11:54:22.051Z,38.70
2017-07-03T11:56:48.291Z,38.10
2017-07-03T11:59:14.525Z,39.20
2017-07-03T12:01:40.796Z,38.10
2017-07-03T12:04:07.052Z,39.40
2017-07-03T12:06:33.306Z,37.90
2017-07-03T12:08:59.565Z,38.10
2017-07-03T12:11:25.807Z,39.10
2017-07-03T12:13:52.069Z,39.10
2017-07-03T12:17:35.392Z,39.50
2017-07-03T12:20:01.971Z,38.10
2017-07-03T12:22:28.231Z,37.70
2017-07-03T12:24:54.471Z,36.80
2017-07-03T12:27:20.736Z,38.20
2017-07-03T12:29:46.995Z,37.60
2017-07-03T12:32:13.249Z,37.90
2017-07-03T12:34:39.497Z,37.70
2017-07-03T12:37:05.748Z,39.40
2017-07-03T12:39:32.011Z,38.00
2017-07-03T12:41:58.249Z,39.60
2017-07-03T12:44:24.496Z,38.20
2017-07-03T12:46:50.735Z,38.40
2017-07-03T12:49:16.982Z,38.00
2017-07-03T12:51:43.208Z,39.80
2017-07-03T12:54:09.452Z,41.10
2017-07-03T12:56:35.750Z,39.60
2017-07-03T12:59:02.002Z,39.90
2017-07-03T13:01:28.229Z,39.20
2017-07-03T13:03:54.467Z,39.00
2017-07-03T13:06:20.715Z,39.00
2017-07-03T13:08:47.038Z,40.70
2017-07-03T13:11:13.324Z,39.90
2017-07-03T13:13:39.556Z,38.20
2017-07-03T13:17:36.023Z,39.00
2017-07-03T13:20:02.279Z,37.90
2017-07-03T13:22:28.586Z,37.80
2017-07-03T13:24:55.012Z,38.90
2017-07-03T13:27:21.252Z,38.30
2017-07-03T13:29:48.515Z,36.90
2017-07-03T13:32:14.805Z,35.60
2017-07-03T13:34:41.036Z,36.00
2017-07-03T13:37:07.258Z,36.90
2017-07-03T13:39:33.575Z,36.50
2017-07-03T13:41:59.830Z,36.40
2017-07-03T13:44:26.125Z,37.50
2017-07-03T13:46:52.406Z,35.30
2017-07-03T13:49:18.784Z,34.60
2017-07-03T13:51:45.159Z,36.40
2017-07-03T13:54:11.459Z,36.90
2017-07-03T13:56:37.770Z,37.70
2017-07-03T13:59:04.119Z,36.90
2017-07-03T14:01:30.419Z,36.90
2017-07-03T14:03:56.669Z,36.30
2017-07-03T14:06:23.041Z,36.10
2017-07-03T14:08:49.273Z,39.00
2017-07-03T14:11:16.001Z,38.20
2017-07-03T14:13:42.367Z,38.20
2017-07-03T14:17:35.895Z,35.50
2017-07-03T14:20:02.562Z,34.70
2017-07-03T14:22:28.819Z,34.80
2017-07-03T14:24:55.085Z,33.00
2017-07-03T14:27:21.349Z,34.60
2017-07-03T14:29:47.832Z,33.20
2017-07-03T14:32:14.095Z,34.00
2017-07-03T14:34:41.066Z,31.70
2017-07-03T14:37:07.318Z,30.80
2017-07-03T14:39:33.580Z,32.20
2017-07-03T14:41:59.842Z,30.00
2017-07-03T14:44:26.419Z,32.70
2017-07-03T14:46:52.680Z,33.20
2017-07-03T14:49:18.955Z,33.80
2017-07-03T14:51:45.212Z,34.90
2017-07-03T14:54:11.490Z,34.60
2017-07-03T14:56:37.779Z,36.30
2017-07-03T14:59:04.027Z,36.60
2017-07-03T15:01:30.327Z,36.70
2017-07-03T15:03:57.215Z,36.90
2017-07-03T15:06:23.461Z,38.70
2017-07-03T15:08:49.723Z,38.90
2017-07-03T15:11:16.143Z,39.90
2017-07-03T15:13:42.401Z,37.80
2017-07-03T15:17:35.412Z,37.90
2017-07-03T15:20:01.671Z,36.30
2017-07-03T15:22:27.934Z,37.40
2017-07-03T15:24:54.185Z,36.10
2017-07-03T15:27:20.429Z,37.50
2017-07-03T15:29:46.751Z,37.00
2017-07-03T15:32:13.062Z,38.30
2017-07-03T15:34:39.323Z,37.60
2017-07-03T15:37:05.751Z,37.60
2017-07-03T15:39:32.673Z,38.40
2017-07-03T15:41:58.931Z,39.20
2017-07-03T15:44:25.227Z,40.20
2017-07-03T15:46:51.505Z,40.40
2017-07-03T15:49:17.739Z,40.50
2017-07-03T15:51:43.995Z,41.40
2017-07-03T15:54:10.260Z,42.10
2017-07-03T15:56:36.586Z,43.00
2017-07-03T15:59:02.828Z,43.60
2017-07-03T16:01:29.118Z,44.00
2017-07-03T16:03:55.372Z,45.40
2017-07-03T16:06:21.619Z,46.30
2017-07-03T16:08:47.872Z,46.70
2017-07-03T16:11:14.127Z,47.10
2017-07-03T16:13:40.388Z,47.70
2017-07-03T16:17:36.155Z,48.60
2017-07-03T16:20:02.413Z,48.60
2017-07-03T16:22:28.658Z,48.40
2017-07-03T16:24:54.891Z,46.30
2017-07-03T16:27:21.143Z,45.10
2017-07-03T16:29:47.393Z,45.30
2017-07-03T16:32:13.665Z,43.80
2017-07-03T16:34:39.931Z,44.50
2017-07-03T16:37:06.182Z,42.80
2017-07-03T16:39:32.416Z,42.30
2017-07-03T16:41:58.664Z,41.30
2017-07-03T16:44:24.911Z,41.00
2017-07-03T16:46:51.144Z,40.80
2017-07-03T16:49:17.405Z,41.70
2017-07-03T16:51:43.654Z,41.60
2017-07-03T16:54:09.955Z,39.40
2017-07-03T16:56:36.226Z,38.70
2017-07-03T16:59:03.221Z,36.90
2017-07-03T17:01:29.482Z,35.80
2017-07-03T17:03:55.727Z,36.20
2017-07-03T17:06:34.193Z,37.10
2017-07-03T17:09:00.428Z,38.20
2017-07-03T17:11:26.654Z,37.70
2017-07-03T17:13:52.874Z,39.50
2017-07-03T17:17:35.957Z,40.20
2017-07-03T17:20:02.950Z,42.90
2017-07-03T17:22:29.195Z,41.50
2017-07-03T17:24:55.428Z,40.40
2017-07-03T17:27:21.730Z,39.90
2017-07-03T17:29:48.017Z,41.50
2017-07-03T17:32:14.265Z,42.40
2017-07-03T17:34:41.267Z,44.40
2017-07-03T17:37:07.716Z,43.90
2017-07-03T17:39:33.960Z,43.00
2017-07-03T17:42:00.199Z,43.20
2017-07-03T17:44:26.447Z,44.00
2017-07-03T17:46:52.712Z,43.80
2017-07-03T17:49:19.019Z,44.60
2017-07-03T17:51:45.279Z,45.10
2017-07-03T17:54:11.536Z,45.60
2017-07-03T17:56:37.793Z,45.00
2017-07-03T17:59:04.079Z,45.70
2017-07-03T18:01:30.383Z,45.90
2017-07-03T18:03:56.628Z,45.90
2017-07-03T18:06:22.933Z,46.90
2017-07-03T18:08:49.213Z,47.00
2017-07-03T18:11:15.475Z,47.40
2017-07-03T18:13:41.786Z,47.20
2017-07-03T18:17:35.695Z,46.70
2017-07-03T18:20:01.989Z,46.20
2017-07-03T18:22:28.240Z,46.20
2017-07-03T18:24:54.545Z,46.20
2017-07-03T18:27:20.969Z,46.10
2017-07-03T18:29:47.243Z,46.70
2017-07-03T18:32:13.526Z,47.10
2017-07-03T18:34:39.808Z,46.70
2017-07-03T18:37:06.073Z,47.40
2017-07-03T18:39:32.335Z,47.70
2017-07-03T18:41:58.609Z,49.00
2017-07-03T18:44:24.957Z,49.00
2017-07-03T18:46:51.229Z,50.30
2017-07-03T18:49:17.489Z,50.70
2017-07-03T18:51:43.738Z,50.10
2017-07-03T18:54:10.003Z,51.00
2017-07-03T18:56:36.251Z,50.90
2017-07-03T18:59:02.541Z,51.10
2017-07-03T19:01:28.799Z,52.00
2017-07-03T19:03:55.035Z,52.90
2017-07-03T19:06:21.320Z,53.30
2017-07-03T19:08:47.571Z,53.20
2017-07-03T19:11:13.851Z,53.50
2017-07-03T19:13:40.118Z,53.90
2017-07-03T19:17:35.593Z,53.40
2017-07-03T19:20:02.086Z,54.60
2017-07-03T19:22:28.351Z,55.00
2017-07-03T19:24:54.606Z,55.20
2017-07-03T19:27:20.900Z,54.70
2017-07-03T19:29:47.150Z,55.10
2017-07-03T19:32:13.456Z,55.60
2017-07-03T19:34:39.704Z,55.70
2017-07-03T19:37:06.006Z,55.30
2017-07-03T19:39:32.288Z,56.10
2017-07-03T19:41:58.640Z,56.90
2017-07-03T19:44:24.928Z,57.70
2017-07-03T19:46:51.247Z,57.60
2017-07-03T19:49:17.539Z,58.10
2017-07-03T19:51:43.808Z,58.60
2017-07-03T19:54:10.115Z,58.10
2017-07-03T19:56:36.392Z,58.80
2017-07-03T19:59:02.679Z,59.10
2017-07-03T20:01:29.007Z,59.30
2017-07-03T20:03:55.293Z,59.20
2017-07-03T20:06:21.600Z,60.20
2017-07-03T20:08:47.871Z,60.60
2017-07-03T20:11:14.130Z,62.00
2017-07-03T20:13:40.463Z,62.40
2017-07-03T20:17:36.940Z,62.10
2017-07-03T20:20:03.212Z,63.40
2017-07-03T20:22:29.452Z,63.60
2017-07-03T20:24:55.764Z,63.50
2017-07-03T20:27:22.033Z,63.50
2017-07-03T20:29:48.304Z,63.50
2017-07-03T20:32:14.573Z,65.00
2017-07-03T20:34:40.904Z,64.60
2017-07-03T20:37:07.137Z,64.60
2017-07-03T20:39:33.411Z,64.70
2017-07-03T20:41:59.667Z,66.90
2017-07-03T20:44:25.913Z,66.30
2017-07-03T20:46:52.164Z,66.10
2017-07-03T20:49:18.556Z,66.20
2017-07-03T20:51:44.802Z,66.10
2017-07-03T20:54:11.036Z,66.80
2017-07-03T20:56:37.273Z,67.60
2017-07-03T20:59:03.529Z,66.80
2017-07-03T21:01:29.978Z,68.30
2017-07-03T21:03:56.447Z,69.10
2017-07-03T21:06:22.697Z,69.70
2017-07-03T21:08:48.937Z,69.00
2017-07-03T21:11:15.207Z,69.40
2017-07-03T21:13:41.641Z,69.70
2017-07-03T21:17:36.584Z,71.40
2017-07-03T21:20:02.899Z,71.10
2017-07-03T21:22:29.265Z,71.40
2017-07-03T21:24:55.541Z,72.30
2017-07-03T21:27:22.060Z,72.40
2017-07-03T21:29:48.335Z,72.70
2017-07-03T21:32:14.576Z,71.30
2017-07-03T21:34:40.850Z,71.40
2017-07-03T21:37:07.136Z,71.80
2017-07-03T21:39:33.366Z,71.60
2017-07-03T21:41:59.627Z,72.50
2017-07-03T21:44:25.914Z,70.80
2017-07-03T21:46:52.202Z,70.90
2017-07-03T21:49:18.441Z,70.60
2017-07-03T21:51:44.734Z,70.90
2017-07-03T21:54:10.999Z,70.40
2017-07-03T21:56:37.236Z,71.10
2017-07-03T21:59:03.498Z,71.70
2017-07-03T22:01:29.759Z,71.80
2017-07-03T22:03:55.999Z,71.60
2017-07-03T22:06:22.258Z,73.60
2017-07-03T22:08:48.504Z,73.00
2017-07-03T22:11:14.744Z,72.60
2017-07-03T22:13:40.983Z,72.00
2017-07-03T22:17:35.476Z,72.00
2017-07-03T22:20:01.724Z,72.30
2017-07-03T22:22:27.968Z,72.40
2017-07-03T22:24:54.218Z,72.20
2017-07-03T22:27:20.458Z,72.20
2017-07-03T22:29:46.694Z,72.50
2017-07-03T22:32:12.946Z,73.00
2017-07-03T22:34:39.225Z,72.60
2017-07-03T22:37:05.459Z,72.70
2017-07-03T22:39:31.720Z,71.80
2017-07-03T22:41:57.955Z,71.60
2017-07-03T22:44:24.239Z,71.80
2017-07-03T22:46:50.491Z,71.00
2017-07-03T22:49:16.744Z,71.10
2017-07-03T22:51:43.006Z,71.30
2017-07-03T22:54:09.277Z,70.90
2017-07-03T22:56:35.518Z,70.10
2017-07-03T22:59:01.747Z,70.60
2017-07-03T23:01:27.967Z,70.20
2017-07-03T23:03:54.203Z,69.90
2017-07-03T23:06:20.460Z,70.40
2017-07-03T23:08:46.740Z,70.50
2017-07-03T23:11:13.202Z,70.30
2017-07-03T23:13:39.420Z,70.50
2017-07-03T23:17:36.750Z,70.20
2017-07-03T23:20:02.988Z,69.70
2017-07-03T23:22:29.215Z,69.90
2017-07-03T23:24:55.444Z,69.10
2017-07-03T23:27:21.700Z,69.00
2017-07-03T23:29:47.959Z,69.20
2017-07-03T23:32:14.208Z,69.60
2017-07-03T23:34:40.446Z,69.10
2017-07-03T23:37:06.720Z,69.70
2017-07-03T23:39:32.975Z,69.10
2017-07-03T23:41:59.203Z,69.50
2017-07-03T23:44:25.441Z,69.50
2017-07-03T23:46:51.683Z,69.80
2017-07-03T23:49:17.901Z,69.80
2017-07-03T23:51:44.160Z,70.40
2017-07-03T23:54:10.388Z,70.70
2017-07-03T23:56:36.623Z,70.40
2017-07-03T23:59:02.846Z,71.10
